Weather at Stavanger Airport, Sola

Public forecast

Using degrees Celsius for public forecast. Weather courtesy of forecast.io.

Current aviation weather report (METAR) for Stavanger Airport, Sola

2024/05/18 13:50 (retrieved 33 minutes ago)

ENZV 181350Z 30010KT CAVOK 18/06 Q1017 NOSIG

Aviation forecast (TAF) for Stavanger Airport, Sola

2024/05/18 12:36 (retrieved 2 hours ago)

TAF ENZV 181100Z 1812/1912 30010KT CAVOK BECMG 1817/1819 VRB05KT